地図

経路データ

SID SEASON NUMBER BASIN SUBBASIN NAME ISO_TIME NATURE LAT LON WMO_WIND WMO_PRES WMO_AGENCY TRACK_TYPE DIST2LAND LANDFALL IFLAG USA_AGENCY USA_ATCF_ID USA_LAT USA_LON USA_RECORD USA_STATUS USA_WIND USA_PRES USA_SSHS USA_R34_NE USA_R34_SE USA_R34_SW USA_R34_NW USA_R50_NE USA_R50_SE USA_R50_SW USA_R50_NW USA_R64_NE USA_R64_SE USA_R64_SW USA_R64_NW USA_POCI USA_ROCI USA_RMW USA_EYE TOKYO_LAT TOKYO_LON TOKYO_GRADE TOKYO_WIND TOKYO_PRES TOKYO_R50_DIR TOKYO_R50_LONG TOKYO_R50_SHORT TOKYO_R30_DIR TOKYO_R30_LONG TOKYO_R30_SHORT TOKYO_LAND CMA_LAT CMA_LON CMA_CAT CMA_WIND CMA_PRES HKO_LAT HKO_LON HKO_CAT HKO_WIND HKO_PRES NEWDELHI_LAT NEWDELHI_LON NEWDELHI_GRADE NEWDELHI_WIND NEWDELHI_PRES NEWDELHI_CI NEWDELHI_DP NEWDELHI_POCI REUNION_LAT REUNION_LON REUNION_TYPE REUNION_WIND REUNION_PRES REUNION_TNUM REUNION_CI REUNION_RMW REUNION_R34_NE REUNION_R34_SE REUNION_R34_SW REUNION_R34_NW REUNION_R50_NE REUNION_R50_SE REUNION_R50_SW REUNION_R50_NW REUNION_R64_NE REUNION_R64_SE REUNION_R64_SW REUNION_R64_NW BOM_LAT BOM_LON BOM_TYPE BOM_WIND BOM_PRES BOM_TNUM BOM_CI BOM_RMW BOM_R34_NE BOM_R34_SE BOM_R34_SW BOM_R34_NW BOM_R50_NE BOM_R50_SE BOM_R50_SW BOM_R50_NW BOM_R64_NE BOM_R64_SE BOM_R64_SW BOM_R64_NW BOM_ROCI BOM_POCI BOM_EYE BOM_POS_METHOD BOM_PRES_METHOD NADI_LAT NADI_LON NADI_CAT NADI_WIND NADI_PRES WELLINGTON_LAT WELLINGTON_LON WELLINGTON_WIND WELLINGTON_PRES DS824_LAT DS824_LON DS824_STAGE DS824_WIND DS824_PRES TD9636_LAT TD9636_LON TD9636_STAGE TD9636_WIND TD9636_PRES TD9635_LAT TD9635_LON TD9635_WIND TD9635_PRES TD9635_ROCI NEUMANN_LAT NEUMANN_LON NEUMANN_CLASS NEUMANN_WIND NEUMANN_PRES MLC_LAT MLC_LON MLC_CLASS MLC_WIND MLC_PRES USA_GUST BOM_GUST BOM_GUST_PER REUNION_GUST REUNION_GUST_PER USA_SEAHGT USA_SEARAD_NE USA_SEARAD_SE USA_SEARAD_SW USA_SEARAD_NW STORM_SPEED STORM_DIR
2017094S17191 2017 15 SP MM NOT_NAMED 2017-04-04 00:00:00 TS -16.8000 -169.000 main 480 480 O_____________ jtwc_sh SH142017 -16.8000 -169.000 TD 25 1004 -1 1008 150 11 202
2017094S17191 2017 15 SP MM NOT_NAMED 2017-04-04 03:00:00 TS -17.3251 -169.220 main 506 506 P_____________ SH142017 -17.3251 -169.220 TD 25 1004 -1 1006 150 11 201
2017094S17191 2017 15 SP MM NOT_NAMED 2017-04-04 06:00:00 TS -17.8000 -169.400 main 538 538 O_____________ jtwc_sh SH142017 -17.8000 -169.400 TD 25 1004 -1 1004 150 9 198
2017094S17191 2017 15 SP MM NOT_NAMED 2017-04-04 09:00:00 TS -18.1875 -169.515 main 570 570 P_____________ SH142017 -18.1875 -169.515 TD 27 1002 -1 1005 155 7 195
2017094S17191 2017 15 SP MM NOT_NAMED 2017-04-04 12:00:00 TS -18.5000 -169.600 main 594 594 O_____________ jtwc_sh SH142017 -18.5000 -169.600 TD 30 1000 -1 1007 160 65 6 196
2017094S17191 2017 15 SP MM NOT_NAMED 2017-04-04 15:00:00 TS -18.7650 -169.693 main 619 619 P_____________ SH142017 -18.7650 -169.693 TD 32 998 -1 1006 155 65 5 201
2017094S17191 2017 15 SP MM NOT_NAMED 2017-04-04 18:00:00 TS -19.0000 -169.800 main 635 635 O_____________ jtwc_sh SH142017 -19.0000 -169.800 TS 35 996 0 1006 150 65 5 205
2017094S17191 2017 15 SP MM NOT_NAMED 2017-04-04 21:00:00 TS -19.2575 -169.935 main 662 658 P_____________ SH142017 -19.2575 -169.935 TS 35 996 0 1006 150 62 6 210
2017094S17191 2017 15 SP MM NOT_NAMED 2017-04-05 00:00:00 TS -19.5000 -170.100 main 675 675 O_____________ jtwc_sh SH142017 -19.5000 -170.100 TS 35 996 0 1006 150 60 6 217
2017094S17191 2017 15 SP MM NOT_NAMED 2017-04-05 03:00:00 TS -19.7301 -170.315 main 690 690 P_____________ SH142017 -19.7301 -170.315 TS 35 996 0 1005 150 57 6 223
2017094S17191 2017 15 SP MM NOT_NAMED 2017-04-05 06:00:00 TS -19.9000 -170.500 main 706 703 O_____________ jtwc_sh SH142017 -19.9000 -170.500 TS 35 996 0 1005 150 55 3 226
2017094S17191 2017 15 SP MM NOT_NAMED 2017-04-05 09:00:00 TS -19.9650 -170.573 main 714 714 P_____________ SH142017 -19.9650 -170.573 TS 35 997 0 1006 155 50 1 223
2017094S17191 2017 15 SP MM NOT_NAMED 2017-04-05 12:00:00 TS -20.0000 -170.600 main 714 714 O_____________ jtwc_sh SH142017 -20.0000 -170.600 TS 35 998 0 95 1007 160 45 2 216
2017094S17191 2017 15 SP MM NOT_NAMED 2017-04-05 15:00:00 TS -20.0925 -170.672 main 722 722 P_____________ SH142017 -20.0925 -170.672 TS 35 998 0 95 1006 155 45 2 207
2017094S17191 2017 15 SP MM NOT_NAMED 2017-04-05 18:00:00 TS -20.2000 -170.700 main 733 733 O_____________ jtwc_sh SH142017 -20.2000 -170.700 TS 35 998 0 95 1005 150 45 2 167
2017094S17191 2017 15 SP MM NOT_NAMED 2017-04-05 21:00:00 TS -20.2925 -170.637 main 746 746 P_____________ SH142017 -20.2925 -170.637 TS 35 999 0 95 1006 162 42 3 137
2017094S17191 2017 15 SP MM NOT_NAMED 2017-04-06 00:00:00 TS -20.4000 -170.500 main 760 760 O_____________ jtwc_sh SH142017 -20.4000 -170.500 TS 35 1001 0 95 40 1007 175 40 4 130
2017094S17191 2017 15 SP MM NOT_NAMED 2017-04-06 03:00:00 TS -20.5350 -170.330 main 776 776 P_____________ SH142017 -20.5350 -170.330 TS 35 998 0 95 40 1007 175 40 5 129
2017094S17191 2017 15 SP MM NOT_NAMED 2017-04-06 06:00:00 TS -20.7000 -170.100 main 803 803 O_____________ jtwc_sh SH142017 -20.7000 -170.100 TS 35 996 0 95 40 1007 175 40 6 127
2017094S17191 2017 15 SP MM NOT_NAMED 2017-04-06 09:00:00 TS -20.8925 -169.822 main 834 834 P_____________ SH142017 -20.8925 -169.822 TS 35 996 0 95 40 1007 175 40 7 126
2017094S17191 2017 15 SP MM NOT_NAMED 2017-04-06 12:00:00 TS -21.1000 -169.500 main 865 865 O_____________ jtwc_sh SH142017 -21.1000 -169.500 TS 35 996 0 95 40 1007 175 40 7 125
2017094S17191 2017 15 SP MM NOT_NAMED 2017-04-06 15:00:00 TS -21.2998 -169.187 main 897 897 P_____________ SH142017 -21.2998 -169.187 TS 35 996 0 95 40 1007 175 40 8 122
2017094S17191 2017 15 SP MM NOT_NAMED 2017-04-06 18:00:00 TS -21.5000 -168.800 main 933 933 O_____________ jtwc_sh SH142017 -21.5000 -168.800 TS 35 996 0 95 40 1007 175 40 9 116
2017094S17191 2017 15 SP MM NOT_NAMED 2017-04-06 21:00:00 TS -21.7000 -168.300 main 975 975 O_____________ jtwc_sh SH142017 -21.7000 -168.300 TS 35 996 0 95 40 1007 175 40 6 163
2017094S17191 2017 15 SP MM NOT_NAMED 2017-04-07 00:00:00 TS -22.1000 -168.600 main 1003 991 O_____________ jtwc_sh SH142017 -22.1000 -168.600 TD 30 1000 -1 1007 175 40 7 233
2017094S17191 2017 15 SP MM NOT_NAMED 2017-04-07 03:00:00 TS -22.0954 -168.867 main 991 963 P_____________ SH142017 -22.0954 -168.867 TD 30 1000 -1 1007 175 40 5 293
2017094S17191 2017 15 SP MM NOT_NAMED 2017-04-07 06:00:00 TS -21.9000 -169.100 main 963 946 O_____________ jtwc_sh SH142017 -21.9000 -169.100 TD 30 1000 -1 1007 175 40 5 301
2017094S17191 2017 15 SP MM NOT_NAMED 2017-04-07 09:00:00 TS -21.8275 -169.337 main 946 939 P_____________ SH142017 -21.8275 -169.337 TD 27 1002 -1 1007 175 40 4 285
2017094S17191 2017 15 SP MM NOT_NAMED 2017-04-07 12:00:00 TS -21.8000 -169.500 main 939 939 O_____________ jtwc_sh SH142017 -21.8000 -169.500 TD 25 1004 -1 1007 175 40 1 266
2017094S17191 2017 15 SP MM NOT_NAMED 2017-04-07 15:00:00 TS -21.8348 -169.463 main 939 939 P_____________ SH142017 -21.8348 -169.463 TD 25 1004 -1 1007 175 40 1 0
2017094S17191 2017 15 SP MM NOT_NAMED 2017-04-07 18:00:00 TS -21.9000 -169.500 main 950 941 O_____________ jtwc_sh SH142017 -21.9000 -169.500 TD 25 1004 -1 1007 175 40 4 252
2017094S17191 2017 15 SP MM NOT_NAMED 2017-04-07 21:00:00 TS -21.9654 -169.905 main 949 937 P_____________ SH142017 -21.9654 -169.905 TD 25 1004 -1 1007 175 40 8 263
2017094S17191 2017 15 SP MM NOT_NAMED 2017-04-08 00:00:00 TS -22.0000 -170.400 main 937 931 O_____________ jtwc_sh SH142017 -22.0000 -170.400 TD 25 1004 -1 1007 175 40 8 269
2017094S17191 2017 15 SP MM NOT_NAMED 2017-04-08 03:00:00 TS -21.9723 -170.730 main 931 915 P_____________ SH142017 -21.9723 -170.730 TD 25 1004 -1 1007 175 40 6 280
2017094S17191 2017 15 SP MM NOT_NAMED 2017-04-08 06:00:00 TS -21.9000 -171.000 main 915 901 O_____________ jtwc_sh SH142017 -21.9000 -171.000 TD 25 1004 -1 1007 175 40 5 290
2017094S17191 2017 15 SP MM NOT_NAMED 2017-04-08 09:00:00 TS -21.7924 -171.258 main 900 887 P_____________ SH142017 -21.7924 -171.258 TD 25 1004 -1 1007 175 40 5 293
2017094S17191 2017 15 SP MM NOT_NAMED 2017-04-08 12:00:00 TS -21.7000 -171.500 main 887 885 O_____________ jtwc_sh SH142017 -21.7000 -171.500 TD 25 1004 -1 1007 175 40 5 286
2017094S17191 2017 15 SP MM NOT_NAMED 2017-04-08 15:00:00 TS -21.6698 -171.728 main 885 884 P_____________ SH142017 -21.6698 -171.728 TD 25 1004 -1 1007 175 40 5 270
2017094S17191 2017 15 SP MM NOT_NAMED 2017-04-08 18:00:00 TS -21.7000 -172.000 main 884 883 O_____________ jtwc_sh SH142017 -21.7000 -172.000 TD 25 1004 -1 1007 175 40 6 261
2017094S17191 2017 15 SP MM NOT_NAMED 2017-04-08 21:00:00 TS -21.7626 -172.393 main 895 895 P_____________ SH142017 -21.7626 -172.393 TD 25 1004 -1 1007 175 40 8 255
2017094S17191 2017 15 SP MM NOT_NAMED 2017-04-09 00:00:00 TS -21.9000 -172.800 main 906 906 O_____________ jtwc_sh SH142017 -21.9000 -172.800 TD 25 1004 -1 1007 175 40 8 243
2017094S17191 2017 15 SP MM NOT_NAMED 2017-04-09 03:00:00 TS -22.1200 -173.137 main 930 930 P_____________ SH142017 -22.1200 -173.137 TD 25 1004 -1 1007 175 40 7 228
2017094S17191 2017 15 SP MM NOT_NAMED 2017-04-09 06:00:00 TS -22.4000 -173.400 main 940 939 O_____________ jtwc_sh SH142017 -22.4000 -173.400 TD 25 1004 -1 1007 175 40 7 218
2017094S17191 2017 15 SP MM NOT_NAMED 2017-04-09 09:00:00 TS -22.6774 -173.610 main 947 947 P_____________ SH142017 -22.6774 -173.610 TD 27 1002 -1 1007 175 40 7 205
2017094S17191 2017 15 SP MM NOT_NAMED 2017-04-09 12:00:00 SS -23.0000 -173.700 main 962 962 O_____________ jtwc_sh SH142017 -23.0000 -173.700 SD 30 1000 -2 1007 175 40 7 184
2017094S17191 2017 15 SP MM NOT_NAMED 2017-04-09 15:00:00 SS -23.3924 -173.660 main 987 987 P_____________ SH142017 -23.3924 -173.660 SD 30 1000 -2 1007 175 40 8 167
2017094S17191 2017 15 SP MM NOT_NAMED 2017-04-09 18:00:00 SS -23.8000 -173.500 main 1030 1030 O_____________ jtwc_sh SH142017 -23.8000 -173.500 SD 30 1000 -2 1007 175 40 9 157
2017094S17191 2017 15 SP MM NOT_NAMED 2017-04-09 21:00:00 SS -24.1874 -173.295 main 1073 1073 P_____________ SH142017 -24.1874 -173.295 SD 30 1000 -2 1007 175 40 8 147
2017094S17191 2017 15 SP MM NOT_NAMED 2017-04-10 00:00:00 SS -24.5000 -173.000 main 1117 1117 O_____________ jtwc_sh SH142017 -24.5000 -173.000 SD 30 1000 -2 1007 175 40 8 129
2017094S17191 2017 15 SP MM NOT_NAMED 2017-04-10 03:00:00 SS -24.6800 -172.630 main 1163 1163 P_____________ SH142017 -24.6800 -172.630 SD 30 1000 -2 1007 175 40 8 112
2017094S17191 2017 15 SP MM NOT_NAMED 2017-04-10 06:00:00 SS -24.8000 -172.200 main 1202 1202 O_____________ jtwc_sh SH142017 -24.8000 -172.200 SD 30 1000 -2 1007 175 40 8 109
2017094S17191 2017 15 SP MM NOT_NAMED 2017-04-10 09:00:00 SS -24.9423 -171.772 main 1241 1241 P_____________ SH142017 -24.9423 -171.772 SD 30 1000 -2 1007 175 40 9 110
2017094S17191 2017 15 SP MM NOT_NAMED 2017-04-10 12:00:00 SS -25.1000 -171.300 main 1267 1267 O_____________ jtwc_sh SH142017 -25.1000 -171.300 SD 30 1000 -2 1007 175 40 10 112
2017094S17191 2017 15 SP MM NOT_NAMED 2017-04-10 15:00:00 SS -25.2998 -170.780 main 1294 1294 P_____________ SH142017 -25.2998 -170.780 SD 30 1000 -2 1007 175 40 11 112
2017094S17191 2017 15 SP MM NOT_NAMED 2017-04-10 18:00:00 SS -25.5000 -170.200 main 1325 1325 O_____________ jtwc_sh SH142017 -25.5000 -170.200 SD 30 1000 -2 1007 175 40 12 108
2017094S17191 2017 15 SP MM NOT_NAMED 2017-04-10 21:00:00 SS -25.6730 -169.505 main 1360 1360 P_____________ SH142017 -25.6730 -169.505 SD 30 1000 -2 1007 175 40 12 104
2017094S17191 2017 15 SP MM NOT_NAMED 2017-04-11 00:00:00 SS -25.8000 -168.900 main 1385 1385 O_____________ jtwc_sh SH142017 -25.8000 -168.900 SD 30 1000 -2 1007 175 40 9 102
2017094S17191 2017 15 SP MM NOT_NAMED 2017-04-11 03:00:00 SS -25.8570 -168.575 main 1404 1404 P_____________ SH142017 -25.8570 -168.575 SD 32 998 -2 1007 175 40 5 103
2017094S17191 2017 15 SP MM NOT_NAMED 2017-04-11 06:00:00 SS -25.9000 -168.400 main 1410 1410 O_____________ jtwc_sh SH142017 -25.9000 -168.400 SS 35 996 -2 1007 175 40 4 118
2017094S17191 2017 15 SP MM NOT_NAMED 2017-04-11 09:00:00 SS -26.0300 -168.220 main 1426 1426 P_____________ SH142017 -26.0300 -168.220 SS 35 996 -2 1007 175 40 3 127
2017094S17191 2017 15 SP MM NOT_NAMED 2017-04-11 12:00:00 SS -26.1000 -168.100 main 1440 1433 O_____________ jtwc_sh SH142017 -26.1000 -168.100 SS 35 996 -2 1007 175 40 2 81
2017094S17191 2017 15 SP MM NOT_NAMED 2017-04-11 15:00:00 SS -26.0025 -168.035 main 1433 1411 P_____________ SH142017 -26.0025 -168.035 SS 37 994 -2 1007 175 40 3 16
2017094S17191 2017 15 SP MM NOT_NAMED 2017-04-11 18:00:00 SS -25.8000 -168.000 main 1411 O_____________ jtwc_sh SH142017 -25.8000 -168.000 SS 40 993 -2 160 1007 175 40 4 10

デジタル台風データ・検索

IBTrACS Databaseについて

本データベースは、米国NOAAが公開する1842年以降の世界の熱帯低気圧のベストトラックデータアーカイブInternational Best Track Archive for Climate Stewardship (IBTrACS)を、ウェブで閲覧しやすい形式に変換したものです。

最終更新日:2021-11-26